createdAt,value
2023-03-13T00:02:06.369Z,1.84
2023-03-13T00:04:52.556Z,1.89
2023-03-13T00:07:38.605Z,1.94
2023-03-13T00:10:25.000Z,1.94
2023-03-13T00:13:10.831Z,2.01
2023-03-13T00:15:56.789Z,1.84
2023-03-13T00:18:42.769Z,1.99
2023-03-13T00:21:28.680Z,1.91
2023-03-13T00:24:14.428Z,2.08
2023-03-13T00:27:00.285Z,1.88
2023-03-13T00:29:46.215Z,1.94
2023-03-13T00:32:32.159Z,1.80
2023-03-13T00:35:18.205Z,1.91
2023-03-13T00:38:04.022Z,1.79
2023-03-13T00:40:49.842Z,1.72
2023-03-13T00:43:35.778Z,1.71
2023-03-13T00:46:21.913Z,1.86
2023-03-13T00:49:07.985Z,1.86
2023-03-13T00:51:53.881Z,1.77
2023-03-13T00:54:40.026Z,1.63
2023-03-13T00:57:25.787Z,1.83
2023-03-13T01:00:11.657Z,1.81
2023-03-13T01:02:57.606Z,1.81
2023-03-13T01:05:43.889Z,1.69
2023-03-13T01:08:29.935Z,1.69
2023-03-13T01:11:15.650Z,1.80
2023-03-13T01:14:01.616Z,1.92
2023-03-13T01:16:47.534Z,1.84
2023-03-13T01:19:33.337Z,1.78
2023-03-13T01:22:19.264Z,1.73
2023-03-13T01:25:05.022Z,1.81
2023-03-13T01:27:50.829Z,1.57
2023-03-13T01:30:36.827Z,1.59
2023-03-13T01:33:22.597Z,1.52
2023-03-13T01:36:08.474Z,1.84
2023-03-13T01:38:54.531Z,1.69
2023-03-13T01:41:40.407Z,1.68
2023-03-13T01:44:26.373Z,1.58
2023-03-13T01:47:12.223Z,1.48
2023-03-13T01:49:58.130Z,1.52
2023-03-13T01:52:44.018Z,1.67
2023-03-13T01:55:29.774Z,1.63
2023-03-13T01:58:15.633Z,1.57
2023-03-13T02:01:01.485Z,1.54
2023-03-13T02:03:47.362Z,1.80
2023-03-13T02:06:33.314Z,1.69
2023-03-13T02:09:19.134Z,1.88
2023-03-13T02:12:05.062Z,1.84
2023-03-13T02:14:50.958Z,1.88
2023-03-13T02:17:36.758Z,1.96
2023-03-13T02:20:22.675Z,1.99
2023-03-13T02:23:08.473Z,2.09
2023-03-13T02:25:54.354Z,1.89
2023-03-13T02:28:40.343Z,1.84
2023-03-13T02:31:26.287Z,1.69
2023-03-13T02:34:12.166Z,1.82
2023-03-13T02:36:58.050Z,1.66
2023-03-13T02:39:44.118Z,1.57
2023-03-13T02:42:29.986Z,1.46
2023-03-13T02:45:15.879Z,1.62
2023-03-13T02:48:01.707Z,1.51
2023-03-13T02:50:47.641Z,1.53
2023-03-13T02:53:33.479Z,1.51
2023-03-13T02:56:19.378Z,1.47
2023-03-13T02:59:05.176Z,1.37
2023-03-13T03:01:50.920Z,1.22
2023-03-13T03:04:36.770Z,1.22
2023-03-13T03:07:22.733Z,1.34
2023-03-13T03:10:08.660Z,1.22
2023-03-13T03:12:54.590Z,1.26
2023-03-13T03:15:40.415Z,1.41
2023-03-13T03:18:26.321Z,1.25
2023-03-13T03:21:12.118Z,1.19
2023-03-13T03:23:57.926Z,1.39
2023-03-13T03:26:43.834Z,1.12
2023-03-13T03:29:29.684Z,1.21
2023-03-13T03:32:15.609Z,1.28
2023-03-13T03:35:01.350Z,1.32
2023-03-13T03:37:47.202Z,1.24
2023-03-13T03:40:33.121Z,1.32
2023-03-13T03:43:18.913Z,1.45
2023-03-13T03:46:04.885Z,1.51
2023-03-13T03:48:50.845Z,1.25
2023-03-13T03:51:36.785Z,1.33
2023-03-13T03:54:22.714Z,1.57
2023-03-13T03:57:08.499Z,1.44
2023-03-13T03:59:54.318Z,1.60
2023-03-13T04:02:40.342Z,1.68
2023-03-13T04:05:26.197Z,1.49
2023-03-13T04:08:12.027Z,1.63
2023-03-13T04:10:57.856Z,1.62
2023-03-13T04:13:43.779Z,1.70
2023-03-13T04:16:29.730Z,1.75
2023-03-13T04:19:15.539Z,1.69
2023-03-13T04:22:01.406Z,1.71
2023-03-13T04:24:47.225Z,1.76
2023-03-13T04:27:33.098Z,1.59
2023-03-13T04:30:19.036Z,1.99
2023-03-13T04:33:05.038Z,1.80
2023-03-13T04:35:51.257Z,1.69
2023-03-13T04:38:37.193Z,1.91
2023-03-13T04:41:22.997Z,1.86
2023-03-13T04:44:08.830Z,1.80
2023-03-13T04:46:54.723Z,1.80
2023-03-13T04:49:40.543Z,1.63
2023-03-13T04:52:26.408Z,1.37
2023-03-13T04:55:12.182Z,1.33
2023-03-13T04:57:58.100Z,1.53
2023-03-13T05:00:44.110Z,1.44
2023-03-13T05:03:29.912Z,1.28
2023-03-13T05:06:17.955Z,1.18
2023-03-13T05:09:03.929Z,1.36
2023-03-13T05:11:49.774Z,1.27
2023-03-13T05:14:35.711Z,1.45
2023-03-13T05:17:21.654Z,1.33
2023-03-13T05:20:07.586Z,1.41
2023-03-13T05:22:53.333Z,1.28
2023-03-13T05:25:39.045Z,1.55
2023-03-13T05:28:24.931Z,1.39
2023-03-13T05:31:10.907Z,1.56
2023-03-13T05:33:56.743Z,1.64
2023-03-13T05:36:42.653Z,1.55
2023-03-13T05:39:28.511Z,1.61
2023-03-13T05:42:14.507Z,1.75
2023-03-13T05:45:00.504Z,1.43
2023-03-13T05:47:46.237Z,1.55
2023-03-13T05:50:32.149Z,1.61
2023-03-13T05:53:18.011Z,1.46
2023-03-13T05:56:03.844Z,1.18
2023-03-13T05:58:49.760Z,1.29
2023-03-13T06:01:35.583Z,1.15
2023-03-13T06:04:21.634Z,1.19
2023-03-13T06:07:07.842Z,1.11
2023-03-13T06:09:53.608Z,1.25
2023-03-13T06:12:39.475Z,1.21
2023-03-13T06:15:25.291Z,1.28
2023-03-13T06:18:11.245Z,1.20
2023-03-13T06:20:57.280Z,1.01
2023-03-13T06:23:43.097Z,1.30
2023-03-13T06:26:28.916Z,1.11
2023-03-13T06:29:14.807Z,1.22
2023-03-13T06:32:00.638Z,1.21
2023-03-13T06:34:46.653Z,1.06
2023-03-13T06:37:32.536Z,1.27
2023-03-13T06:40:18.466Z,1.19
2023-03-13T06:43:04.392Z,1.34
2023-03-13T06:45:50.273Z,1.34
2023-03-13T06:48:36.114Z,1.10
2023-03-13T06:51:22.093Z,0.93
2023-03-13T06:54:07.955Z,0.92
2023-03-13T06:56:53.954Z,0.90
2023-03-13T06:59:39.764Z,0.84
2023-03-13T07:02:25.721Z,0.88
2023-03-13T07:05:11.547Z,0.85
2023-03-13T07:07:57.366Z,0.90
2023-03-13T07:10:43.305Z,0.93
2023-03-13T07:13:29.090Z,0.81
2023-03-13T07:16:15.066Z,0.99
2023-03-13T07:19:00.999Z,0.78
2023-03-13T07:21:46.696Z,0.77
2023-03-13T07:24:32.602Z,0.82
2023-03-13T07:27:18.476Z,1.12
2023-03-13T07:30:04.477Z,1.16
2023-03-13T07:32:50.480Z,1.57
2023-03-13T07:35:36.347Z,0.94
2023-03-13T07:38:22.280Z,1.00
2023-03-13T07:41:08.390Z,0.89
2023-03-13T07:43:54.413Z,0.83
2023-03-13T07:46:40.395Z,0.77
2023-03-13T07:49:26.228Z,0.88
2023-03-13T07:52:12.086Z,1.02
2023-03-13T07:54:57.965Z,0.90
2023-03-13T07:57:43.764Z,0.64
2023-03-13T08:00:29.753Z,0.70
2023-03-13T08:03:15.563Z,0.88
2023-03-13T08:06:01.436Z,0.74
2023-03-13T08:08:47.416Z,0.59
2023-03-13T08:11:33.078Z,0.74
2023-03-13T08:14:18.966Z,0.58
2023-03-13T08:17:04.923Z,0.64
2023-03-13T08:19:50.838Z,0.81
2023-03-13T08:22:36.899Z,0.68
2023-03-13T08:25:22.737Z,0.60
2023-03-13T08:28:08.667Z,0.63
2023-03-13T08:30:54.550Z,0.52
2023-03-13T08:33:40.389Z,0.71
2023-03-13T08:36:26.371Z,0.66
2023-03-13T08:39:12.422Z,0.61
2023-03-13T08:41:58.244Z,0.63
2023-03-13T08:44:44.180Z,0.55
2023-03-13T08:47:29.915Z,0.63
2023-03-13T08:50:15.718Z,0.65
2023-03-13T08:53:01.614Z,0.75
2023-03-13T08:55:47.510Z,0.59
2023-03-13T08:58:33.457Z,0.59
2023-03-13T09:01:19.365Z,0.55
2023-03-13T09:04:05.341Z,0.46
2023-03-13T09:06:51.541Z,0.52
2023-03-13T09:09:37.301Z,0.70
2023-03-13T09:12:30.846Z,0.64
2023-03-13T09:15:17.595Z,0.69
2023-03-13T09:18:03.643Z,0.63
2023-03-13T09:20:49.478Z,0.67
2023-03-13T09:23:35.427Z,0.90
2023-03-13T09:26:23.205Z,0.81
2023-03-13T09:29:09.500Z,1.03
2023-03-13T09:31:55.482Z,0.83
2023-03-13T09:34:41.250Z,0.74
2023-03-13T09:37:27.130Z,0.75
2023-03-13T09:40:13.121Z,0.76
2023-03-13T09:42:59.107Z,0.74
2023-03-13T09:45:45.022Z,0.91
2023-03-13T09:48:31.000Z,0.82
2023-03-13T09:51:16.772Z,0.77
2023-03-13T09:54:02.664Z,0.74
2023-03-13T09:56:48.630Z,0.59
2023-03-13T09:59:34.410Z,0.56
2023-03-13T10:02:20.322Z,0.53
2023-03-13T10:05:06.124Z,0.62
2023-03-13T10:07:52.131Z,0.62
2023-03-13T10:10:38.051Z,0.63
2023-03-13T10:13:24.371Z,0.62
2023-03-13T10:16:10.509Z,0.76
2023-03-13T10:18:56.447Z,0.50
2023-03-13T10:21:42.370Z,0.85
2023-03-13T10:24:28.793Z,0.75
2023-03-13T10:27:14.784Z,0.74
2023-03-13T10:30:00.836Z,0.63
2023-03-13T10:32:46.773Z,0.79
2023-03-13T10:35:32.708Z,0.64
2023-03-13T10:38:18.586Z,0.74
2023-03-13T10:41:04.644Z,0.64
2023-03-13T10:43:50.469Z,0.70
2023-03-13T10:46:36.959Z,0.80
2023-03-13T10:49:23.080Z,0.59
2023-03-13T10:52:09.076Z,0.72
2023-03-13T10:54:54.966Z,0.64
2023-03-13T10:57:40.654Z,0.77
2023-03-13T11:00:26.567Z,0.66
2023-03-13T11:03:16.570Z,0.71
2023-03-13T11:06:02.673Z,0.72
2023-03-13T11:08:52.535Z,0.62
2023-03-13T11:11:38.430Z,0.68
2023-03-13T11:14:24.261Z,0.62
2023-03-13T11:17:10.076Z,0.71
2023-03-13T11:19:59.918Z,0.81
2023-03-13T11:22:45.751Z,0.65
2023-03-13T11:25:31.640Z,0.61
2023-03-13T11:28:17.563Z,0.60
2023-03-13T11:31:03.532Z,0.61
2023-03-13T11:33:49.403Z,0.60
2023-03-13T11:36:39.223Z,0.76
2023-03-13T11:39:26.809Z,0.70
2023-03-13T11:42:12.621Z,0.79
2023-03-13T11:44:58.609Z,0.66
2023-03-13T11:47:44.651Z,0.54
2023-03-13T11:50:30.531Z,0.71
2023-03-13T11:53:16.570Z,0.55
2023-03-13T11:56:02.921Z,0.57
2023-03-13T11:58:49.292Z,0.62
2023-03-13T12:01:35.151Z,0.60
2023-03-13T12:04:20.873Z,0.61
2023-03-13T12:07:06.812Z,0.48
2023-03-13T12:09:53.777Z,0.52
2023-03-13T12:12:39.593Z,0.60
2023-03-13T12:15:29.409Z,0.58
2023-03-13T12:18:15.408Z,0.61
2023-03-13T12:21:01.207Z,0.70
2023-03-13T12:23:47.096Z,0.66
2023-03-13T12:26:33.057Z,0.63
2023-03-13T12:29:18.830Z,0.63
2023-03-13T12:32:04.758Z,0.60
2023-03-13T12:34:50.572Z,0.63
2023-03-13T12:37:36.590Z,0.69
2023-03-13T12:40:22.575Z,0.71
2023-03-13T12:43:08.316Z,0.70
2023-03-13T12:45:54.295Z,0.80
2023-03-13T12:48:40.741Z,0.77
2023-03-13T12:51:26.439Z,0.81
2023-03-13T12:54:12.476Z,0.71
2023-03-13T12:56:58.414Z,0.68
2023-03-13T12:59:46.798Z,0.61
2023-03-13T13:02:32.633Z,0.73
2023-03-13T13:05:18.602Z,0.81
2023-03-13T13:08:04.520Z,0.89
2023-03-13T13:10:50.523Z,0.74
2023-03-13T13:13:36.332Z,0.99
2023-03-13T13:16:22.377Z,0.85
2023-03-13T13:19:08.442Z,0.95
2023-03-13T13:21:54.278Z,0.80
2023-03-13T13:24:40.299Z,1.11
2023-03-13T13:27:26.124Z,0.84
2023-03-13T13:30:12.120Z,0.81
2023-03-13T13:32:58.121Z,1.11
2023-03-13T13:35:43.931Z,0.89
2023-03-13T13:38:29.730Z,0.84
2023-03-13T13:41:15.852Z,0.79
2023-03-13T13:44:01.737Z,0.94
2023-03-13T13:46:47.618Z,0.84
2023-03-13T13:49:33.498Z,0.80
2023-03-13T13:52:19.214Z,0.80
2023-03-13T13:55:05.259Z,0.85
2023-03-13T13:57:51.129Z,0.80
2023-03-13T14:00:37.048Z,0.86
2023-03-13T14:03:23.034Z,0.73
2023-03-13T14:06:09.170Z,0.80
2023-03-13T14:08:55.406Z,0.81
2023-03-13T14:11:41.214Z,0.78
2023-03-13T14:14:27.072Z,0.78
2023-03-13T14:17:13.077Z,0.64
2023-03-13T14:19:58.930Z,0.71
2023-03-13T14:22:44.904Z,0.84
2023-03-13T14:25:30.654Z,0.70
2023-03-13T14:28:16.586Z,0.78
2023-03-13T14:31:02.565Z,0.78
2023-03-13T14:33:48.420Z,0.69
2023-03-13T14:36:34.731Z,0.67
2023-03-13T14:39:20.717Z,0.71
2023-03-13T14:42:06.512Z,0.72
2023-03-13T14:44:52.489Z,0.82
2023-03-13T14:47:38.314Z,0.64
2023-03-13T14:50:24.189Z,0.66
2023-03-13T14:53:10.190Z,0.71
2023-03-13T14:55:56.078Z,0.67
2023-03-13T14:58:42.072Z,0.62
2023-03-13T15:01:28.131Z,0.74
2023-03-13T15:04:14.155Z,0.65
2023-03-13T15:07:00.049Z,0.77
2023-03-13T15:09:46.025Z,0.74
2023-03-13T15:12:31.984Z,0.73
2023-03-13T15:15:17.875Z,0.67
2023-03-13T15:18:03.686Z,0.66
2023-03-13T15:20:49.511Z,0.77
2023-03-13T15:23:35.364Z,0.61
2023-03-13T15:26:21.322Z,0.62
2023-03-13T15:29:07.231Z,0.76
2023-03-13T15:31:53.172Z,0.69
2023-03-13T15:34:39.133Z,0.69
2023-03-13T15:37:25.172Z,0.71
2023-03-13T15:40:11.067Z,0.77
2023-03-13T15:42:56.942Z,0.68
2023-03-13T15:45:42.777Z,0.63
2023-03-13T15:48:30.514Z,0.64
2023-03-13T15:51:16.363Z,0.70
2023-03-13T15:54:02.163Z,0.82
2023-03-13T15:56:47.967Z,0.77
2023-03-13T15:59:36.146Z,0.71
2023-03-13T16:02:22.781Z,0.68
2023-03-13T16:05:10.128Z,0.74
2023-03-13T16:07:56.140Z,0.68
2023-03-13T16:10:41.944Z,0.64
2023-03-13T16:13:27.845Z,0.73
2023-03-13T16:16:13.891Z,0.68
2023-03-13T16:18:59.635Z,0.63
2023-03-13T16:21:45.503Z,0.66
2023-03-13T16:24:31.519Z,0.61
2023-03-13T16:27:17.466Z,0.80
2023-03-13T16:30:03.374Z,0.69
2023-03-13T16:32:49.324Z,0.81
2023-03-13T16:35:35.342Z,0.67
2023-03-13T16:38:21.280Z,0.76
2023-03-13T16:41:07.028Z,0.76
2023-03-13T16:43:52.911Z,0.82
2023-03-13T16:46:38.845Z,0.82
2023-03-13T16:49:24.730Z,0.70
2023-03-13T16:52:10.794Z,0.73
2023-03-13T16:54:56.572Z,0.82
2023-03-13T16:57:42.547Z,0.83
2023-03-13T17:00:28.455Z,0.81
2023-03-13T17:03:14.361Z,0.76
2023-03-13T17:06:00.269Z,0.83
2023-03-13T17:08:46.122Z,0.76
2023-03-13T17:11:32.085Z,0.83
2023-03-13T17:14:17.923Z,1.04
2023-03-13T17:17:04.161Z,1.05
2023-03-13T17:19:50.157Z,0.97
2023-03-13T17:22:36.041Z,0.80
2023-03-13T17:25:22.028Z,1.09
2023-03-13T17:28:07.986Z,0.98
2023-03-13T17:30:53.745Z,1.11
2023-03-13T17:33:39.657Z,1.05
2023-03-13T17:36:25.737Z,1.28
2023-03-13T17:39:11.573Z,0.98
2023-03-13T17:41:57.437Z,1.06
2023-03-13T17:44:43.205Z,1.00
2023-03-13T17:47:29.153Z,1.21
2023-03-13T17:50:15.072Z,1.09
2023-03-13T17:53:00.945Z,1.16
2023-03-13T17:55:46.901Z,1.14
2023-03-13T17:58:32.857Z,1.21
2023-03-13T18:01:18.639Z,1.17
2023-03-13T18:04:04.520Z,1.41
2023-03-13T18:06:50.362Z,1.27
2023-03-13T18:09:36.103Z,1.41
2023-03-13T18:12:22.014Z,1.30
2023-03-13T18:15:07.881Z,1.35
2023-03-13T18:17:53.805Z,1.55
2023-03-13T18:20:39.787Z,1.54
2023-03-13T18:23:25.682Z,1.54
2023-03-13T18:26:12.572Z,1.48
2023-03-13T18:28:58.293Z,1.52
2023-03-13T18:31:44.359Z,1.96
2023-03-13T18:34:30.505Z,1.90
2023-03-13T18:37:16.360Z,1.97
2023-03-13T18:40:02.239Z,2.03
2023-03-13T18:42:48.202Z,2.33
2023-03-13T18:45:34.072Z,1.92
2023-03-13T18:48:19.899Z,2.09
2023-03-13T18:51:05.706Z,2.12
2023-03-13T18:53:51.646Z,1.96
2023-03-13T18:56:37.475Z,2.16
2023-03-13T18:59:23.227Z,2.25
2023-03-13T19:02:09.119Z,2.40
2023-03-13T19:04:54.987Z,2.31
2023-03-13T19:07:40.919Z,2.23
2023-03-13T19:10:26.999Z,2.39
2023-03-13T19:13:12.858Z,2.15
2023-03-13T19:15:58.974Z,2.31
2023-03-13T19:18:44.945Z,2.43
2023-03-13T19:21:31.390Z,2.27
2023-03-13T19:24:17.344Z,2.34
2023-03-13T19:27:03.077Z,2.19
2023-03-13T19:29:49.031Z,2.59
2023-03-13T19:32:35.080Z,2.57
2023-03-13T19:35:20.886Z,2.50
2023-03-13T19:38:06.825Z,2.29
2023-03-13T19:40:52.727Z,2.38
2023-03-13T19:43:38.696Z,2.37
2023-03-13T19:46:24.635Z,2.56
2023-03-13T19:49:10.518Z,2.41
2023-03-13T19:51:56.436Z,2.54
2023-03-13T19:54:42.394Z,2.57
2023-03-13T19:57:28.157Z,2.57
2023-03-13T20:00:14.260Z,2.65
2023-03-13T20:03:02.207Z,2.75
2023-03-13T20:05:48.046Z,2.89
2023-03-13T20:08:33.916Z,2.81
2023-03-13T20:11:19.777Z,2.81
2023-03-13T20:14:05.586Z,3.12
2023-03-13T20:16:51.414Z,2.78
2023-03-13T20:19:37.261Z,3.20
2023-03-13T20:22:23.080Z,2.97
2023-03-13T20:25:09.010Z,2.96
2023-03-13T20:27:55.062Z,3.09
2023-03-13T20:30:41.136Z,3.26
2023-03-13T20:33:27.183Z,3.01
2023-03-13T20:36:13.214Z,3.23
2023-03-13T20:38:59.209Z,3.50
2023-03-13T20:41:45.087Z,3.39
2023-03-13T20:44:33.050Z,3.38
2023-03-13T20:47:18.953Z,2.45
2023-03-13T20:50:04.796Z,2.66
2023-03-13T20:52:50.626Z,2.08
2023-03-13T20:55:36.448Z,1.75
2023-03-13T20:58:22.445Z,1.41
2023-03-13T21:01:08.528Z,1.11
2023-03-13T21:03:54.310Z,0.97
2023-03-13T21:06:40.270Z,1.26
2023-03-13T21:09:26.153Z,1.20
2023-03-13T21:12:12.130Z,0.93
2023-03-13T21:14:57.864Z,1.06
2023-03-13T21:17:43.799Z,0.63
2023-03-13T21:20:29.657Z,0.60
2023-03-13T21:23:15.782Z,0.51
2023-03-13T21:26:01.520Z,0.40
2023-03-13T21:28:47.350Z,0.35
2023-03-13T21:31:33.237Z,0.22
2023-03-13T21:34:19.060Z,0.33
2023-03-13T21:37:05.102Z,0.12
2023-03-13T21:39:50.810Z,0.16
2023-03-13T21:42:36.764Z,0.11
2023-03-13T21:45:22.725Z,0.09
2023-03-13T21:48:08.563Z,0.10
2023-03-13T21:50:54.536Z,0.12
2023-03-13T21:53:40.423Z,0.16
2023-03-13T21:56:26.230Z,0.11
2023-03-13T21:59:12.077Z,0.17
2023-03-13T22:01:57.870Z,0.11
2023-03-13T22:04:43.783Z,0.14
2023-03-13T22:07:29.858Z,0.23
2023-03-13T22:10:15.545Z,0.17
2023-03-13T22:13:01.578Z,0.23
2023-03-13T22:15:47.386Z,0.20
2023-03-13T22:18:33.232Z,0.17
2023-03-13T22:21:19.061Z,0.22
2023-03-13T22:24:04.848Z,0.20
2023-03-13T22:26:50.669Z,0.16
2023-03-13T22:29:36.654Z,0.12
2023-03-13T22:32:22.470Z,0.18
2023-03-13T22:35:08.514Z,0.15
2023-03-13T22:37:55.813Z,0.14
2023-03-13T22:40:41.657Z,0.19
2023-03-13T22:43:27.607Z,0.16
2023-03-13T22:46:13.463Z,0.13
2023-03-13T22:48:59.390Z,0.13
2023-03-13T22:51:45.273Z,0.11
2023-03-13T22:54:31.085Z,0.12
2023-03-13T22:57:16.969Z,0.13
2023-03-13T23:00:02.783Z,0.09
2023-03-13T23:02:48.797Z,0.05
2023-03-13T23:05:34.689Z,0.11
2023-03-13T23:08:22.626Z,0.11
2023-03-13T23:11:08.528Z,0.09
2023-03-13T23:13:54.424Z,0.12
2023-03-13T23:16:40.138Z,0.11
2023-03-13T23:19:26.045Z,0.09
2023-03-13T23:22:11.747Z,0.09
2023-03-13T23:24:57.679Z,0.07
2023-03-13T23:27:43.487Z,0.11
2023-03-13T23:30:29.336Z,0.11
2023-03-13T23:33:15.176Z,0.10
2023-03-13T23:36:01.182Z,0.08
2023-03-13T23:38:47.018Z,0.07
2023-03-13T23:41:33.000Z,0.07
2023-03-13T23:44:18.819Z,0.17
2023-03-13T23:47:04.897Z,0.11
2023-03-13T23:49:50.672Z,0.21
2023-03-13T23:52:36.558Z,0.09
2023-03-13T23:55:22.546Z,0.11
2023-03-13T23:58:08.512Z,0.08
